• Join FlightAware (Why Join?)
  • Login
  • US Flag 
10:16AM EDT


 

Airport Tracker/Info


-or-


 

Live Flight TrackerFlight Track Log ✈ AAL1686 ✈ 30-Jun-2013 ✈ KLAX - KSTL

Flight Track Log - Related Links

Times and Time Zones

All times are in EDT time to prevent confusion due to time zone crossing. See the AAL1686 flight status page for this flight to view local times or setup timezone preferences in your user account.

Time Position Orientation Groundspeed Altitude Reporting Facility
EDT Latitude Longitude Course Direction KTS MPH feet Rate Location/Type
08:01PM 33.9339 -118.4386 254° West 184 212 1,400  Level Los Angeles Center
08:03PM 33.9147 -118.5178 254° West 232 267 3,500 2,100 Climbing Los Angeles Center
08:04PM 33.8647 -118.5831 227° Southwest 245 282 6,200 2,340 Climbing Los Angeles Center
08:05PM 33.8358 -118.5161 117° Southeast 256 295 8,400 1,920 Climbing Los Angeles Center
08:06PM 33.8989 -118.4625 35° Northeast 277 319 10,200 1,620 Climbing Los Angeles Center
08:07PM 33.9583 -118.3933 44° Northeast 310 357 11,800 1,740 Climbing Los Angeles Center
08:08PM 34.0089 -118.3014 56° Northeast 326 375 13,800 1,800 Climbing Los Angeles Center
08:09PM 34.0644 -118.2028 56° Northeast 348 400 15,600 1,740 Climbing Los Angeles Center
08:10PM 34.1256 -118.0964 55° Northeast 379 436 17,500 1,980 Climbing Los Angeles Center
08:11PM 34.1994 -117.9639 56° Northeast 394 453 19,800 1,740 Climbing Los Angeles Center
08:12PM 34.2636 -117.8506 56° Northeast 406 467 21,500 1,500 Climbing Los Angeles Center
08:13PM 34.3417 -117.7100 56° Northeast 419 482 23,300 1,620 Climbing Los Angeles Center
08:14PM 34.4122 -117.5814 56° Northeast 432 497 24,900 1,380 Climbing Los Angeles Center
08:15PM 34.4792 -117.4597 56° Northeast 435 501 26,200 1,140 Climbing Los Angeles Center
08:16PM 34.5486 -117.3350 56° Northeast 445 512 27,300 1,020 Climbing Los Angeles Center
08:17PM 34.6172 -117.2069 57° Northeast 454 522 28,400 1,200 Climbing Los Angeles Center
08:18PM 34.6864 -117.0792 57° Northeast 456 525 29,800 1,320 Climbing Los Angeles Center
08:19PM 34.7717 -116.9247 56° Northeast 455 524 31,200 1,080 Climbing Los Angeles Center
08:21PM 34.8394 -116.8017 56° Northeast 450 518 32,100 780 Climbing Los Angeles Center
08:22PM 34.9069 -116.6756 57° Northeast 445 512 32,900 420 Climbing Los Angeles Center
08:23PM 34.9800 -116.5489 55° Northeast 455 524 33,000  Climbing Los Angeles Center
08:24PM 35.0703 -116.4383 45° Northeast 459 528 32,900  Descending Los Angeles Center
08:25PM 35.1764 -116.3069 45° Northeast 456 525 33,000  Climbing Los Angeles Center
08:26PM 35.2625 -116.1975 46° Northeast 450 518 33,000  Level Los Angeles Center
08:27PM 35.3508 -116.0869 46° Northeast 453 521 33,000  Level Los Angeles Center
08:28PM 35.4389 -115.9756 46° Northeast 456 525 33,000  Level Los Angeles Center
08:29PM 35.5403 -115.8486 46° Northeast 452 520 33,000  Level Los Angeles Center
08:30PM 35.6269 -115.7428 45° Northeast 444 511 33,000  Level Los Angeles Center
08:31PM 35.7139 -115.6303 46° Northeast 449 517 33,000  Level Los Angeles Center
08:32PM 35.8000 -115.5183 46° Northeast 451 519 33,000  Level Los Angeles Center
08:33PM 35.8869 -115.4067 46° Northeast 454 522 33,000  Level Los Angeles Center
08:34PM 35.9911 -115.2719 46° Northeast 455 524 33,000  Level Los Angeles Center
08:35PM 36.0744 -115.1592 48° Northeast 451 519 33,000  Level Los Angeles Center
08:36PM 36.1219 -115.0164 68° East 454 522 33,000  Level Los Angeles Center
08:37PM 36.1656 -114.8725 69° East 451 519 33,000  Level Los Angeles Center
08:38PM 36.2100 -114.7289 69° East 449 517 33,000  Level Los Angeles Center
08:39PM 36.2631 -114.5542 69° East 452 520 33,000  Level Los Angeles Center
08:40PM 36.2981 -114.4378 70° East 453 521 33,000  Level Los Angeles Center
08:41PM 36.3511 -114.2628 69° East 452 520 33,000  Level Los Angeles Center
08:42PM 36.3911 -114.1167 71° East 450 518 33,000  Level Los Angeles Center
08:43PM 36.4178 -113.9967 75° East 451 519 33,000  Level Los Angeles Center
08:44PM 36.4581 -113.8161 74° East 453 521 33,000  Level Los Angeles Center
08:46PM 36.4989 -113.6353 74° East 453 521 33,000  Level Los Angeles Center
08:47PM 36.5356 -113.4694 75° East 451 519 33,000  Level Los Angeles Center
08:48PM 36.5700 -113.3192 74° East 452 520 33,000  Level Los Angeles Center
08:49PM 36.6092 -113.1383 75° East 454 522 33,000  Level Los Angeles Center
08:50PM 36.6419 -112.9881 75° East 453 521 33,000  Level Los Angeles Center
08:51PM 36.6744 -112.8378 75° East 452 520 33,000  Level Los Angeles Center
08:52PM 36.7075 -112.6903 74° East 448 516 33,000  Level Los Angeles Center
08:53PM 36.7400 -112.5381 75° East 453 521 33,000  Level Los Angeles Center
08:54PM 36.7714 -112.3864 75° East 455 524 33,000  Level Los Angeles Center
08:55PM 36.8100 -112.2061 75° East 452 520 33,000  Level Los Angeles Center
08:56PM 36.8431 -112.0519 75° East 458 527 33,000  Level Los Angeles Center
08:57PM 36.8744 -111.8983 76° East 459 528 33,000  Level Los Angeles Center
08:58PM 36.9061 -111.7464 75° East 456 525 33,000  Level Los Angeles Center
08:59PM 36.9375 -111.5961 75° East 451 519 33,000  Level Los Angeles Center
09:00PM 36.9747 -111.4114 76° East 454 522 33,000  Level Los Angeles Center
09:01PM 37.0072 -111.2567 75° East 458 527 33,000  Level Los Angeles Center
09:02PM 37.0342 -111.1056 77° East 454 522 33,000  Level Los Angeles Center
09:04PM 37.0786 -110.8914 75° East 455 524 33,000  Level Denver Center
09:05PM 37.1136 -110.7092 76° East 454 522 33,000  Level Denver Center
09:06PM 37.1436 -110.5592 76° East 447 514 33,000  Level Denver Center
09:07PM 37.1722 -110.4081 77° East 447 514 33,000  Level Denver Center
09:08PM 37.1989 -110.2578 77° East 446 513 33,000  Level Denver Center
09:09PM 37.2283 -110.1119 76° East 444 511 33,000  Level Denver Center
09:10PM 37.2603 -109.9431 77° East 445 512 33,000  Level Denver Center
09:11PM 37.2861 -109.8000 77° East 440 506 33,000  Level Denver Center
09:12PM 37.3192 -109.6286 76° East 452 520 33,000  Level Denver Center
09:13PM 37.3464 -109.4822 77° East 448 516 33,000  Level Denver Center
09:14PM 37.3769 -109.3092 77° East 451 519 33,000  Level Denver Center
09:15PM 37.4050 -109.1606 77° East 455 524 33,000  Level Denver Center
09:16PM 37.4317 -109.0136 77° East 451 519 33,000  Level Denver Center
09:17PM 37.4622 -108.8392 78° East 454 522 33,000  Level Denver Center
09:18PM 37.4892 -108.6900 77° East 456 525 33,000  Level Denver Center
09:19PM 37.5186 -108.5136 78° East 459 528 33,000  Level Denver Center
09:20PM 37.5447 -108.3631 78° East 460 529 33,000  Level Denver Center
09:21PM 37.5756 -108.1892 77° East 456 525 33,000  Level Denver Center
09:22PM 37.6008 -108.0422 78° East 450 518 33,000  Level Denver Center
09:23PM 37.6267 -107.8914 78° East 455 524 33,000  Level Denver Center
09:24PM 37.6517 -107.7403 78° East 459 528 33,000  Level Denver Center
09:25PM 37.6811 -107.5661 78° East 455 524 33,000  Level Denver Center
09:26PM 37.7167 -107.3908 76° East 467 537 33,100  Climbing Denver Center
09:27PM 37.7706 -107.2553 63° Northeast 450 518 33,000 -60 Descending Denver Center
09:28PM 37.8306 -107.1072 63° Northeast 450 518 33,000  Level Denver Center
09:29PM 37.8867 -106.9714 62° Northeast 455 524 33,000  Level Denver Center
09:30PM 37.9500 -106.8114 63° Northeast 456 525 33,000  Level Denver Center
09:32PM 38.0122 -106.6228 67° East 455 524 33,000  Level Denver Center
09:33PM 38.0411 -106.4758 76° East 462 532 33,000  Level Denver Center
09:34PM 38.0697 -106.2944 79° East 468 539 33,000  Level Denver Center
09:35PM 38.0867 -106.1394 82° East 464 534 33,000  Level Denver Center
09:36PM 38.1089 -105.9586 81° East 463 533 33,000  Level Denver Center
09:37PM 38.1311 -105.8025 80° East 469 540 33,000  Level Denver Center
09:38PM 38.1517 -105.6453 81° East 470 541 33,000  Level Denver Center
09:39PM 38.1772 -105.4583 80° East 479 551 33,000  Level Denver Center
09:40PM 38.1972 -105.2997 81° East 477 549 33,000  Level Denver Center
09:41PM 38.2217 -105.1131 80° East 476 548 33,000  Level Denver Center
09:42PM 38.2417 -104.9531 81° East 478 550 33,000  Level Denver Center
09:43PM 38.2622 -104.7942 81° East 476 548 33,000  Level Denver Center
09:44PM 38.2828 -104.6344 81° East 477 549 33,000  Level Denver Center
09:45PM 38.3050 -104.4494 81° East 471 542 33,000  Level Denver Center
09:46PM 38.3286 -104.2625 81° East 476 548 33,000  Level Denver Center
09:47PM 38.3475 -104.0994 82° East 480 552 33,000  Level Denver Center
09:48PM 38.3703 -103.9108 81° East 481 554 33,000  Level Denver Center
09:49PM 38.3894 -103.7478 81° East 483 556 33,000  Level Denver Center
09:50PM 38.4083 -103.5867 81° East 479 551 33,000  Level Denver Center
09:51PM 38.4297 -103.4056 81° East 480 552 33,000  Level Denver Center
09:52PM 38.4508 -103.2161 82° East 484 557 33,000  Level Denver Center
09:53PM 38.4689 -103.0564 82° East 477 549 33,000  Level Denver Center
09:54PM 38.4869 -102.8939 82° East 483 556 33,000  Level Denver Center
09:55PM 38.5061 -102.7056 83° East 480 552 33,000  Level Denver Center
09:56PM 38.5236 -102.5444 82° East 480 552 33,000  Level Denver Center
09:57PM 38.5433 -102.3556 82° East 480 552 33,000  Level Denver Center
09:58PM 38.5594 -102.1931 83° East 482 555 33,000  Level Denver Center
09:59PM 38.5786 -102.0064 82° East 477 549 33,000  Level Denver Center
10:01PM 38.5969 -101.8194 83° East 475 547 33,000  Level Denver Center
10:02PM 38.6156 -101.6342 83° East 470 541 33,000  Level Denver Center
10:03PM 38.6311 -101.4731 83° East 473 544 33,000  Level Denver Center
10:04PM 38.6492 -101.2875 83° East 470 541 33,000  Level Denver Center
10:05PM 38.6639 -101.1269 83° East 473 544 33,000  Level Denver Center
10:06PM 38.6792 -100.9664 83° East 474 545 33,000  Level Denver Center
10:07PM 38.6961 -100.7808 83° East 471 542 33,000  Level Denver Center
10:08PM 38.7100 -100.6217 84° East 470 541 33,000  Level Denver Center
10:09PM 38.7250 -100.4361 84° East 468 539 33,000  Level Denver Center
10:10PM 38.7394 -100.2786 83° East 465 535 33,000  Level Denver Center
10:11PM 38.7519 -100.1206 84° East 466 536 33,000  Level Denver Center
10:11PM 38.7611 -100.0122 84° East 465 535 33,000  Level Kansas City Center
10:13PM 38.7750 -99.8275 84° East 465 535 33,000  Level Kansas City Center
10:14PM 38.7872 -99.6694 84° East 465 535 33,000  Level Kansas City Center
10:15PM 38.7992 -99.5086 85° East 468 539 33,000  Level Kansas City Center
10:16PM 38.8133 -99.3456 84° East 463 533 33,000  Level Kansas City Center
10:17PM 38.8264 -99.1806 84° East 464 534 33,000  Level Kansas City Center
10:18PM 38.8381 -99.0175 85° East 458 527 33,000  Level Kansas City Center
10:19PM 38.8508 -98.8508 84° East 465 535 33,000  Level Kansas City Center
10:20PM 38.8608 -98.6872 85° East 460 529 33,000  Level Kansas City Center
10:21PM 38.8731 -98.5211 85° East 465 535 33,000  Level Kansas City Center
10:22PM 38.8856 -98.3567 84° East 464 534 33,000  Level Kansas City Center
10:23PM 38.8981 -98.1586 85° East 465 535 33,000  Level Kansas City Center
10:24PM 38.9092 -97.9939 85° East 462 532 33,000  Level Kansas City Center
10:25PM 38.9197 -97.8297 85° East 462 532 33,000  Level Kansas City Center
10:26PM 38.9283 -97.6728 86° East 460 529 33,000  Level Kansas City Center
10:27PM 38.9408 -97.5017 85° East 460 529 33,000  Level Kansas City Center
10:28PM 38.9508 -97.3375 85° East 459 528 33,000  Level Kansas City Center
10:29PM 38.9611 -97.1750 85° East 456 525 33,000  Level Kansas City Center
10:30PM 38.9703 -97.0125 86° East 456 525 33,000  Level Kansas City Center
10:31PM 38.9792 -96.8511 86° East 453 521 33,000  Level Kansas City Center
10:32PM 38.9881 -96.6881 86° East 455 524 33,000  Level Kansas City Center
10:33PM 38.9978 -96.5089 86° East 452 520 33,000  Level Kansas City Center
10:34PM 39.0047 -96.3531 87° East 454 522 33,000  Level Kansas City Center
10:35PM 39.0144 -96.1733 86° East 452 520 33,000  Level Kansas City Center
10:36PM 39.0219 -96.0186 86° East 455 524 33,000  Level Kansas City Center
10:37PM 39.0292 -95.8633 87° East 455 524 33,000  Level Kansas City Center
10:38PM 39.0383 -95.6828 86° East 455 524 33,000  Level Kansas City Center
10:39PM 39.0447 -95.5303 87° East 450 518 33,000  Level Kansas City Center
10:40PM 39.0517 -95.3575 87° East 446 513 33,000  Level Kansas City Center
10:41PM 39.0583 -95.1983 87° East 448 516 33,000  Level Kansas City Center
10:42PM 39.0639 -95.0522 87° East 450 518 33,000  Level Kansas City Center
10:43PM 39.0708 -94.8742 87° East 449 517 33,000  Level Kansas City Center
10:44PM 39.0764 -94.7211 87° East 449 517 33,000  Level Kansas City Center
10:45PM 39.0839 -94.5447 87° East 445 512 33,000  Level Kansas City Center
10:46PM 39.0886 -94.3928 88° East 444 511 33,000  Level Kansas City Center
10:47PM 39.0933 -94.2386 88° East 450 518 33,000  Level Kansas City Center
10:48PM 39.0769 -94.0606 97° East 460 529 33,000  Level Kansas City Center
10:49PM 39.0289 -93.9144 113° Southeast 466 536 33,000  Level Kansas City Center
10:50PM 38.9753 -93.7458 112° Southeast 457 526 33,000  Level Kansas City Center
10:51PM 38.9358 -93.6147 111° Southeast 447 514 33,000 -300 Level Kansas City Center
10:52PM 38.8878 -93.4706 113° Southeast 440 506 32,400 -840 Descending Kansas City Center
10:53PM 38.8617 -93.3206 103° East 432 497 31,400 -720 Descending Kansas City Center
10:54PM 38.8583 -93.1639 92° East 434 499 31,000 -240 Descending Kansas City Center
10:55PM 38.8536 -92.9767 92° East 436 502 31,000  Level Kansas City Center
10:56PM 38.8486 -92.8189 92° East 437 503 31,000  Level Kansas City Center
10:57PM 38.8436 -92.6628 92° East 438 504 31,000 -1,140 Level Kansas City Center
10:58PM 38.8386 -92.5058 92° East 438 504 28,800 -2,400 Descending Kansas City Center
10:59PM 38.8336 -92.3469 92° East 439 505 26,200 -2,100 Descending Kansas City Center
11:00PM 38.8289 -92.1869 92° East 442 509 24,600 -1,560 Descending Kansas City Center
11:01PM 38.8217 -92.0267 93° East 444 511 23,100 -1,500 Descending Kansas City Center
11:02PM 38.8169 -91.8728 92° East 435 501 21,600 -1,560 Descending Kansas City Center
11:03PM 38.8106 -91.7231 93° East 424 488 20,000 -1,500 Descending Kansas City Center
11:04PM 38.8056 -91.5861 93° East 414 476 18,600 -1,380 Descending Kansas City Center
11:05PM 38.8003 -91.4442 93° East 403 464 17,200 -1,500 Descending Kansas City Center
11:07PM 38.7939 -91.3056 93° East 395 455 15,600 -1,560 Descending Kansas City Center
11:08PM 38.7569 -91.1794 111° Southeast 385 443 14,100 -1,500 Descending Kansas City Center
11:09PM 38.7092 -91.0606 117° Southeast 379 436 12,600 -1,620 Descending Kansas City Center
11:10PM 38.6572 -90.9192 115° Southeast 372 428 10,900 -1,320 Descending Kansas City Center
11:11PM 38.6369 -90.8064 103° East 338 389 10,000 -1,020 Descending Kansas City Center
11:12PM 38.6264 -90.7083 98° East 288 331 8,900 -1,020 Descending Kansas City Center
11:13PM 38.6172 -90.6153 97° East 271 312 8,000 -720 Descending Kansas City Center
11:14PM 38.6083 -90.5361 98° East 233 268 7,500 -1,140 Descending Kansas City Center
11:15PM 38.6000 -90.4642 98° East 210 242 5,800 -1,680 Descending Kansas City Center
11:16PM 38.5914 -90.3925 99° East 209 241 4,200 -1,140 Descending Kansas City Center
11:17PM 38.5958 -90.3117 86° East 196 226 3,500 -660 Descending Kansas City Center
11:18PM 38.6456 -90.2869 21° North 190 219 2,900 -840 Descending Kansas City Center
11:19PM 38.6903 -90.2767 10° North 178 205 1,900 -840 Descending Kansas City Center
11:20PM 38.7236 -90.3147 318° Northwest 167 192 1,200 -720 Descending Kansas City Center
11:21PM 38.7419 -90.3547 300° West 147 169 500 -720 Descending Kansas City Center